createdAt,value
2019-02-10T00:02:21.577Z,99669.95
2019-02-10T00:04:49.895Z,99658.56
2019-02-10T00:07:18.248Z,99657.09
2019-02-10T00:09:46.609Z,99663.07
2019-02-10T00:12:14.927Z,99662.00
2019-02-10T00:14:43.246Z,99658.89
2019-02-10T00:17:12.280Z,99656.59
2019-02-10T00:19:40.575Z,99645.31
2019-02-10T00:22:09.034Z,99640.75
2019-02-10T00:24:37.411Z,99652.41
2019-02-10T00:27:05.787Z,99656.94
2019-02-10T00:29:34.126Z,99645.69
2019-02-10T00:32:02.482Z,99643.42
2019-02-10T00:34:30.816Z,99632.43
2019-02-10T00:36:59.211Z,99641.88
2019-02-10T00:39:27.513Z,99634.45
2019-02-10T00:41:55.886Z,99632.67
2019-02-10T00:44:24.189Z,99624.16
2019-02-10T00:46:52.533Z,99614.77
2019-02-10T00:49:20.850Z,99607.04
2019-02-10T00:51:49.210Z,99594.16
2019-02-10T00:54:17.547Z,99589.52
2019-02-10T00:56:45.903Z,99582.22
2019-02-10T00:59:14.249Z,99575.95
2019-02-10T01:01:42.577Z,99599.30
2019-02-10T01:04:11.776Z,99599.11
2019-02-10T01:06:41.687Z,99587.66
2019-02-10T01:09:10.838Z,99572.73
2019-02-10T01:11:39.898Z,99581.63
2019-02-10T01:14:08.365Z,99573.83
2019-02-10T01:16:36.697Z,99570.04
2019-02-10T01:19:06.903Z,99568.13
2019-02-10T01:21:35.401Z,99573.63
2019-02-10T01:24:03.856Z,99564.56
2019-02-10T01:26:32.277Z,99550.47
2019-02-10T01:29:00.636Z,99546.02
2019-02-10T01:31:28.971Z,99539.62
2019-02-10T01:33:57.283Z,99539.62
2019-02-10T01:36:25.631Z,99534.58
2019-02-10T01:38:53.953Z,99534.86
2019-02-10T01:41:22.342Z,99524.78
2019-02-10T01:43:50.645Z,99517.70
2019-02-10T01:46:19.032Z,99513.11
2019-02-10T01:48:47.354Z,99510.64
2019-02-10T01:51:15.681Z,99502.64
2019-02-10T01:53:44.027Z,99492.87
2019-02-10T01:56:12.603Z,99487.09
2019-02-10T01:58:40.914Z,99483.66
2019-02-10T02:01:09.448Z,99475.98
2019-02-10T02:03:37.797Z,99466.53
2019-02-10T02:06:06.155Z,99460.25
2019-02-10T02:08:34.487Z,99451.81
2019-02-10T02:11:02.822Z,99448.32
2019-02-10T02:13:31.143Z,99435.22
2019-02-10T02:15:59.489Z,99413.20
2019-02-10T02:18:27.810Z,99410.69
2019-02-10T02:20:56.149Z,99398.68
2019-02-10T02:23:24.527Z,99395.88
2019-02-10T02:25:52.921Z,99381.80
2019-02-10T02:28:21.286Z,99377.54
2019-02-10T02:30:49.689Z,99372.17
2019-02-10T02:33:17.981Z,99371.38
2019-02-10T02:35:46.298Z,99361.12
2019-02-10T02:38:14.659Z,99355.98
2019-02-10T02:40:43.034Z,99351.91
2019-02-10T02:43:11.689Z,99344.19
2019-02-10T02:45:40.021Z,99336.11
2019-02-10T02:48:08.375Z,99331.09
2019-02-10T02:50:36.804Z,99324.38
2019-02-10T02:53:05.137Z,99320.38
2019-02-10T02:55:33.463Z,99317.13
2019-02-10T02:58:01.921Z,99308.42
2019-02-10T03:00:30.298Z,99307.58
2019-02-10T03:02:58.641Z,99295.02
2019-02-10T03:05:26.964Z,99289.48
2019-02-10T03:07:55.311Z,99281.80
2019-02-10T03:10:23.707Z,99273.69
2019-02-10T03:12:52.072Z,99256.52
2019-02-10T03:15:20.397Z,99255.58
2019-02-10T03:17:48.792Z,99234.36
2019-02-10T03:20:17.151Z,99223.84
2019-02-10T03:22:45.451Z,99208.45
2019-02-10T03:25:14.100Z,99205.47
2019-02-10T03:27:42.419Z,99221.02
2019-02-10T03:30:12.294Z,99227.81
2019-02-10T03:32:40.679Z,99229.41
2019-02-10T03:35:09.135Z,99228.53
2019-02-10T03:37:37.500Z,99214.02
2019-02-10T03:40:08.244Z,99214.06
2019-02-10T03:42:36.625Z,99204.42
2019-02-10T03:45:07.260Z,99199.39
2019-02-10T03:47:35.610Z,99196.78
2019-02-10T03:50:05.833Z,99190.09
2019-02-10T03:52:34.302Z,99178.20
2019-02-10T03:55:02.773Z,99179.63
2019-02-10T03:57:31.177Z,99168.19
2019-02-10T03:59:59.539Z,99160.44
2019-02-10T04:02:27.881Z,99155.22
2019-02-10T04:04:56.315Z,99145.56
2019-02-10T04:07:24.610Z,99145.58
2019-02-10T04:09:52.990Z,99144.18
2019-02-10T04:12:21.402Z,99144.50
2019-02-10T04:14:49.777Z,99137.86
2019-02-10T04:17:18.129Z,99135.19
2019-02-10T04:19:46.471Z,99134.27
2019-02-10T04:22:14.791Z,99126.59
2019-02-10T04:24:43.168Z,99117.36
2019-02-10T04:27:11.870Z,99113.35
2019-02-10T04:29:40.198Z,99109.30
2019-02-10T04:32:09.724Z,99106.39
2019-02-10T04:34:38.058Z,99099.36
2019-02-10T04:37:06.379Z,99088.34
2019-02-10T04:39:34.728Z,99084.69
2019-02-10T04:42:03.053Z,99077.27
2019-02-10T04:44:31.610Z,99078.86
2019-02-10T04:47:00.088Z,99066.81
2019-02-10T04:49:28.400Z,99065.37
2019-02-10T04:51:56.733Z,99055.42
2019-02-10T04:54:25.068Z,99053.98
2019-02-10T04:56:53.865Z,99046.50
2019-02-10T04:59:22.196Z,99040.61
2019-02-10T05:01:50.522Z,99039.73
2019-02-10T05:04:18.851Z,99036.70
2019-02-10T05:06:47.161Z,99018.95
2019-02-10T05:09:15.486Z,99026.17
2019-02-10T05:11:43.800Z,99014.78
2019-02-10T05:14:12.419Z,99004.22
2019-02-10T05:16:40.730Z,98999.27
2019-02-10T05:19:09.094Z,98994.37
2019-02-10T05:21:37.432Z,98990.78
2019-02-10T05:24:05.746Z,98973.34
2019-02-10T05:26:34.073Z,98966.67
2019-02-10T05:29:02.390Z,98953.16
2019-02-10T05:31:30.741Z,98950.20
2019-02-10T05:33:59.066Z,98944.55
2019-02-10T05:36:27.411Z,98933.25
2019-02-10T05:38:55.721Z,98927.11
2019-02-10T05:41:24.078Z,98931.94
2019-02-10T05:43:52.377Z,98922.48
2019-02-10T05:46:20.883Z,98912.44
2019-02-10T05:48:49.186Z,98908.02
2019-02-10T05:51:17.520Z,98903.70
2019-02-10T05:53:45.828Z,98889.03
2019-02-10T05:56:14.170Z,98879.69
2019-02-10T05:58:42.496Z,98862.34
2019-02-10T06:01:17.244Z,98859.77
2019-02-10T06:03:45.565Z,98849.09
2019-02-10T06:06:13.921Z,98838.81
2019-02-10T06:08:42.245Z,98834.81
2019-02-10T06:11:11.260Z,98818.41
2019-02-10T06:13:39.560Z,98815.19
2019-02-10T06:16:07.881Z,98818.88
2019-02-10T06:18:36.221Z,98813.03
2019-02-10T06:21:04.571Z,98808.23
2019-02-10T06:23:32.892Z,98804.05
2019-02-10T06:26:01.237Z,98784.11
2019-02-10T06:28:29.543Z,98784.71
2019-02-10T06:30:57.863Z,98774.33
2019-02-10T06:33:26.174Z,98780.70
2019-02-10T06:35:54.524Z,98774.39
2019-02-10T06:38:22.998Z,98767.00
2019-02-10T06:40:51.420Z,98765.67
2019-02-10T06:43:19.810Z,98749.44
2019-02-10T06:45:48.204Z,98738.75
2019-02-10T06:48:16.538Z,98734.64
2019-02-10T06:50:44.847Z,98738.64
2019-02-10T06:53:13.330Z,98727.08
2019-02-10T06:55:41.674Z,98710.98
2019-02-10T06:58:10.001Z,98708.79
2019-02-10T07:00:41.093Z,98699.59
2019-02-10T07:03:16.622Z,98692.88
2019-02-10T07:05:45.419Z,98675.81
2019-02-10T07:08:13.973Z,98673.37
2019-02-10T07:10:42.309Z,98667.53
2019-02-10T07:13:11.814Z,98662.19
2019-02-10T07:15:47.473Z,98639.94
2019-02-10T07:18:23.227Z,98638.85
2019-02-10T07:20:51.517Z,98626.08
2019-02-10T07:23:26.196Z,98625.61
2019-02-10T07:25:54.522Z,98613.89
2019-02-10T07:28:26.217Z,98609.75
2019-02-10T07:30:57.898Z,98608.05
2019-02-10T07:33:30.619Z,98597.41
2019-02-10T07:36:03.293Z,98606.48
2019-02-10T07:38:38.650Z,98601.72
2019-02-10T07:41:12.721Z,98596.66
2019-02-10T07:43:46.251Z,98592.81
2019-02-10T07:46:19.929Z,98590.89
2019-02-10T07:48:53.048Z,98578.92
2019-02-10T07:51:27.717Z,98580.91
2019-02-10T07:54:01.200Z,98582.34
2019-02-10T07:56:37.318Z,98569.62
2019-02-10T07:59:11.051Z,98575.66
2019-02-10T08:01:43.015Z,98574.84
2019-02-10T08:04:16.303Z,98576.60
2019-02-10T08:06:49.211Z,98573.41
2019-02-10T08:09:24.031Z,98576.02
2019-02-10T08:11:58.766Z,98563.23
2019-02-10T08:14:33.443Z,98563.55
2019-02-10T08:20:20.161Z,98555.53
2019-02-10T08:22:53.795Z,98545.29
2019-02-10T08:25:24.361Z,98547.41
2019-02-10T08:31:08.037Z,98536.22
2019-02-10T08:33:40.750Z,98540.53
2019-02-10T08:36:13.845Z,98519.56
2019-02-10T08:41:56.898Z,98503.80
2019-02-10T08:44:30.549Z,98496.41
2019-02-10T08:47:05.350Z,98483.74
2019-02-10T08:52:51.698Z,98470.83
2019-02-10T08:55:15.485Z,98462.41
2019-02-10T08:57:43.825Z,98441.86
2019-02-10T09:00:12.202Z,98440.27
2019-02-10T09:02:40.564Z,98422.20
2019-02-10T09:05:09.438Z,98422.03
2019-02-10T09:07:37.728Z,98427.47
2019-02-10T09:10:10.668Z,98424.97
2019-02-10T09:12:38.999Z,98413.63
2019-02-10T09:15:11.228Z,98406.33
2019-02-10T09:17:39.673Z,98403.13
2019-02-10T09:20:10.317Z,98381.96
2019-02-10T09:22:38.694Z,98402.75
2019-02-10T09:25:08.608Z,98395.54
2019-02-10T09:27:36.975Z,98383.23
2019-02-10T09:30:08.139Z,98373.95
2019-02-10T09:32:36.516Z,98367.84
2019-02-10T09:35:06.708Z,98359.86
2019-02-10T09:37:35.063Z,98351.55
2019-02-10T09:40:05.929Z,98352.55
2019-02-10T09:42:34.240Z,98342.13
2019-02-10T09:45:02.696Z,98346.38
2019-02-10T09:47:31.049Z,98338.50
2019-02-10T09:49:59.393Z,98340.84
2019-02-10T09:52:27.702Z,98319.65
2019-02-10T09:54:56.058Z,98305.29
2019-02-10T09:57:24.381Z,98298.78
2019-02-10T09:59:52.774Z,98296.42
2019-02-10T10:02:21.086Z,98283.73
2019-02-10T10:04:49.445Z,98291.63
2019-02-10T10:07:17.788Z,98292.30
2019-02-10T10:12:35.365Z,98285.54
2019-02-10T10:15:05.003Z,98281.25
2019-02-10T10:17:33.303Z,98289.69
2019-02-10T10:20:01.645Z,98269.84
2019-02-10T10:22:29.957Z,98272.64
2019-02-10T10:24:58.334Z,98266.36
2019-02-10T10:27:26.647Z,98260.43
2019-02-10T10:29:54.975Z,98242.31
2019-02-10T10:32:23.339Z,98248.94
2019-02-10T10:34:51.673Z,98242.64
2019-02-10T10:37:19.993Z,98240.54
2019-02-10T10:39:48.342Z,98243.95
2019-02-10T10:42:16.696Z,98242.16
2019-02-10T10:44:45.006Z,98232.78
2019-02-10T10:47:13.321Z,98237.31
2019-02-10T10:49:41.634Z,98238.63
2019-02-10T10:52:09.981Z,98223.50
2019-02-10T10:54:42.815Z,98224.16
2019-02-10T10:57:08.888Z,98219.65
2019-02-10T10:59:37.202Z,98213.24
2019-02-10T11:02:05.641Z,98209.47
2019-02-10T11:04:33.927Z,98209.13
2019-02-10T11:07:02.261Z,98196.95
2019-02-10T11:09:35.361Z,98186.98
2019-02-10T11:12:21.881Z,98194.53
2019-02-10T11:14:50.225Z,98181.36
2019-02-10T11:17:18.559Z,98171.48
2019-02-10T11:19:46.877Z,98167.48
2019-02-10T11:22:15.208Z,98167.92
2019-02-10T11:24:43.511Z,98157.36
2019-02-10T11:27:11.846Z,98155.44
2019-02-10T11:29:40.173Z,98146.94
2019-02-10T11:32:09.377Z,98143.10
2019-02-10T11:34:38.442Z,98138.27
2019-02-10T11:37:07.330Z,98139.84
2019-02-10T11:39:43.400Z,98136.41
2019-02-10T11:42:06.177Z,98119.37
2019-02-10T11:44:34.504Z,98119.16
2019-02-10T11:47:02.959Z,98112.41
2019-02-10T11:49:31.338Z,98106.48
2019-02-10T11:51:59.660Z,98108.56
2019-02-10T11:54:27.991Z,98109.06
2019-02-10T11:56:56.368Z,98102.54
2019-02-10T11:59:24.737Z,98097.48
2019-02-10T12:01:53.089Z,98087.30
2019-02-10T12:04:21.431Z,98097.14
2019-02-10T12:06:49.746Z,98089.15
2019-02-10T12:09:19.147Z,98082.05
2019-02-10T12:11:47.566Z,98086.95
2019-02-10T12:14:15.905Z,98077.59
2019-02-10T12:16:44.224Z,98078.97
2019-02-10T12:19:12.550Z,98074.60
2019-02-10T12:21:40.879Z,98067.34
2019-02-10T12:24:09.321Z,98073.83
2019-02-10T12:26:37.655Z,98070.47
2019-02-10T12:29:06.057Z,98056.41
2019-02-10T12:31:34.401Z,98048.34
2019-02-10T12:34:02.858Z,98063.98
2019-02-10T12:36:31.165Z,98051.83
2019-02-10T12:38:59.507Z,98045.70
2019-02-10T12:41:27.847Z,98043.47
2019-02-10T12:43:56.189Z,98045.86
2019-02-10T12:46:24.511Z,98029.34
2019-02-10T12:48:52.847Z,98029.58
2019-02-10T12:51:21.162Z,98030.55
2019-02-10T12:53:49.469Z,98021.52
2019-02-10T12:56:17.785Z,98016.69
2019-02-10T12:58:46.110Z,98016.33
2019-02-10T13:01:14.461Z,98022.04
2019-02-10T13:03:42.820Z,98018.64
2019-02-10T13:06:11.137Z,98023.58
2019-02-10T13:08:39.470Z,98031.56
2019-02-10T13:11:08.174Z,98033.31
2019-02-10T13:13:36.502Z,98029.78
2019-02-10T13:16:04.911Z,98019.13
2019-02-10T13:18:33.241Z,98024.80
2019-02-10T13:21:01.567Z,98026.05
2019-02-10T13:23:29.918Z,98026.46
2019-02-10T13:25:58.238Z,98025.57
2019-02-10T13:28:27.825Z,98027.52
2019-02-10T13:30:56.332Z,98032.17
2019-02-10T13:33:24.860Z,98029.45
2019-02-10T13:35:53.379Z,98022.56
2019-02-10T13:38:21.694Z,98027.11
2019-02-10T13:40:50.011Z,98020.50
2019-02-10T13:43:18.337Z,98026.42
2019-02-10T13:45:46.665Z,98017.94
2019-02-10T13:48:14.998Z,98015.48
2019-02-10T13:50:43.313Z,98015.88
2019-02-10T13:53:11.644Z,98020.37
2019-02-10T13:55:39.985Z,98027.91
2019-02-10T13:58:08.634Z,98005.22
2019-02-10T14:00:36.975Z,98022.65
2019-02-10T14:03:05.367Z,98008.51
2019-02-10T14:05:33.748Z,97994.61
2019-02-10T14:08:02.137Z,98001.94
2019-02-10T14:10:30.472Z,98015.97
2019-02-10T14:12:58.777Z,98012.07
2019-02-10T14:15:27.185Z,98019.17
2019-02-10T14:17:55.515Z,98031.08
2019-02-10T14:20:23.908Z,98020.79
2019-02-10T14:22:52.231Z,98027.87
2019-02-10T14:25:20.567Z,98024.06
2019-02-10T14:27:48.877Z,98025.09
2019-02-10T14:30:18.790Z,98024.83
2019-02-10T14:32:47.140Z,98026.98
2019-02-10T14:35:15.481Z,98044.17
2019-02-10T14:37:43.775Z,98042.50
2019-02-10T14:40:12.937Z,98046.43
2019-02-10T14:42:41.939Z,98042.66
2019-02-10T14:45:13.836Z,98047.44
2019-02-10T14:47:42.186Z,98047.48
2019-02-10T14:50:13.691Z,98049.87
2019-02-10T14:52:42.013Z,98061.78
2019-02-10T14:55:10.628Z,98053.53
2019-02-10T14:57:38.953Z,98061.65
2019-02-10T15:00:11.172Z,98067.47
2019-02-10T15:02:40.368Z,98056.31
2019-02-10T15:05:09.509Z,98070.00
2019-02-10T15:07:37.800Z,98065.03
2019-02-10T15:10:13.182Z,98055.73
2019-02-10T15:12:41.506Z,98065.71
2019-02-10T15:15:10.552Z,98067.03
2019-02-10T15:17:38.876Z,98062.50
2019-02-10T15:20:09.953Z,98061.17
2019-02-10T15:22:38.345Z,98066.00
2019-02-10T15:25:09.923Z,98075.80
2019-02-10T15:27:38.249Z,98073.19
2019-02-10T15:30:10.985Z,98081.34
2019-02-10T15:32:39.267Z,98084.12
2019-02-10T15:35:08.261Z,98097.77
2019-02-10T15:37:36.640Z,98089.12
2019-02-10T15:40:07.927Z,98072.39
2019-02-10T15:42:36.288Z,98069.66
2019-02-10T15:45:06.103Z,98064.73
2019-02-10T15:47:34.975Z,98065.19
2019-02-10T15:50:05.198Z,98065.80
2019-02-10T15:52:33.606Z,98085.06
2019-02-10T15:55:01.963Z,98080.72
2019-02-10T15:57:30.380Z,98086.93
2019-02-10T15:59:58.695Z,98091.85
2019-02-10T16:02:27.405Z,98101.39
2019-02-10T16:04:56.126Z,98118.94
2019-02-10T16:07:24.973Z,98111.41
2019-02-10T16:09:53.446Z,98107.30
2019-02-10T16:12:21.894Z,98108.81
2019-02-10T16:14:50.484Z,98107.19
2019-02-10T16:17:18.946Z,98103.27
2019-02-10T16:19:47.558Z,98111.11
2019-02-10T16:22:16.135Z,98130.41
2019-02-10T16:24:44.443Z,98140.25
2019-02-10T16:27:13.810Z,98136.42
2019-02-10T16:29:42.129Z,98147.30
2019-02-10T16:32:10.501Z,98166.98
2019-02-10T16:34:38.823Z,98161.95
2019-02-10T16:37:07.535Z,98155.05
2019-02-10T16:39:35.834Z,98154.78
2019-02-10T16:42:04.169Z,98152.88
2019-02-10T16:44:32.490Z,98158.68
2019-02-10T16:47:00.835Z,98158.05
2019-02-10T16:49:29.174Z,98164.38
2019-02-10T16:51:57.606Z,98167.52
2019-02-10T16:54:25.926Z,98155.73
2019-02-10T16:56:54.410Z,98178.65
2019-02-10T17:01:56.419Z,98205.92
2019-02-10T17:04:25.078Z,98211.02
2019-02-10T17:06:53.589Z,98215.91
2019-02-10T17:09:22.190Z,98211.70
2019-02-10T17:11:50.550Z,98223.39
2019-02-10T17:14:18.885Z,98229.25
2019-02-10T17:16:47.255Z,98235.72
2019-02-10T17:19:15.563Z,98230.21
2019-02-10T17:21:44.018Z,98242.08
2019-02-10T17:24:12.917Z,98249.27
2019-02-10T17:26:41.301Z,98240.00
2019-02-10T17:29:10.226Z,98250.20
2019-02-10T17:31:38.538Z,98253.61
2019-02-10T17:34:06.862Z,98241.16
2019-02-10T17:36:35.181Z,98250.43
2019-02-10T17:39:03.798Z,98257.09
2019-02-10T17:41:32.107Z,98260.59
2019-02-10T17:44:00.440Z,98257.09
2019-02-10T17:46:29.329Z,98256.58
2019-02-10T17:48:57.652Z,98274.06
2019-02-10T17:51:25.961Z,98256.23
2019-02-10T17:53:54.306Z,98283.33
2019-02-10T17:56:22.689Z,98272.56
2019-02-10T17:58:51.029Z,98284.44
2019-02-10T18:01:19.707Z,98299.42
2019-02-10T18:03:48.042Z,98309.27
2019-02-10T18:06:16.439Z,98313.42
2019-02-10T18:08:44.799Z,98318.13
2019-02-10T18:11:13.242Z,98327.59
2019-02-10T18:13:41.555Z,98336.95
2019-02-10T18:16:12.527Z,98348.16
2019-02-10T18:18:43.147Z,98340.64
2019-02-10T18:21:16.119Z,98354.18
2019-02-10T18:23:48.249Z,98360.76
2019-02-10T18:26:20.320Z,98360.41
2019-02-10T18:28:54.970Z,98365.59
2019-02-10T18:31:35.862Z,98359.88
2019-02-10T18:34:04.658Z,98364.27
2019-02-10T18:36:35.811Z,98373.55
2019-02-10T18:39:06.569Z,98371.00
2019-02-10T18:41:39.363Z,98370.70
2019-02-10T18:44:10.290Z,98387.27
2019-02-10T18:46:42.490Z,98388.91
2019-02-10T18:49:13.707Z,98392.91
2019-02-10T18:51:46.292Z,98400.66
2019-02-10T18:54:16.986Z,98407.91
2019-02-10T18:56:48.950Z,98408.06
2019-02-10T18:59:19.692Z,98408.78
2019-02-10T19:01:49.983Z,98422.64
2019-02-10T19:04:20.978Z,98421.00
2019-02-10T19:06:49.319Z,98418.72
2019-02-10T19:09:20.397Z,98433.80
2019-02-10T19:11:51.375Z,98436.54
2019-02-10T19:14:22.411Z,98439.20
2019-02-10T19:16:53.412Z,98439.37
2019-02-10T19:19:23.733Z,98442.83
2019-02-10T19:21:54.024Z,98448.38
2019-02-10T19:24:26.676Z,98456.59
2019-02-10T19:26:57.637Z,98467.86
2019-02-10T19:29:28.800Z,98469.11
2019-02-10T19:31:59.996Z,98466.50
2019-02-10T19:34:30.990Z,98470.52
2019-02-10T19:37:01.200Z,98470.68
2019-02-10T19:39:33.068Z,98459.20
2019-02-10T19:42:04.532Z,98470.43
2019-02-10T19:44:35.830Z,98465.41
2019-02-10T19:47:06.502Z,98471.27
2019-02-10T19:49:37.600Z,98464.17
2019-02-10T19:52:08.718Z,98470.20
2019-02-10T19:54:39.441Z,98456.45
2019-02-10T19:57:10.968Z,98466.68
2019-02-10T19:59:41.063Z,98462.38
2019-02-10T20:02:10.017Z,98468.15
2019-02-10T20:04:41.762Z,98464.88
2019-02-10T20:07:12.900Z,98464.69
2019-02-10T20:09:44.009Z,98475.63
2019-02-10T20:12:15.340Z,98476.81
2019-02-10T20:14:45.831Z,98478.53
2019-02-10T20:17:16.809Z,98482.81
2019-02-10T20:19:47.940Z,98473.48
2019-02-10T20:22:19.882Z,98476.19
2019-02-10T20:24:50.829Z,98480.50
2019-02-10T20:27:21.944Z,98487.20
2019-02-10T20:29:52.900Z,98484.62
2019-02-10T20:32:23.544Z,98506.78
2019-02-10T20:34:54.453Z,98507.08
2019-02-10T20:37:26.251Z,98514.46
2019-02-10T20:39:58.327Z,98530.73
2019-02-10T20:42:28.007Z,98550.19
2019-02-10T20:44:59.157Z,98550.52
2019-02-10T20:47:28.984Z,98551.03
2019-02-10T20:50:00.310Z,98564.74
2019-02-10T20:52:31.070Z,98564.02
2019-02-10T20:55:00.463Z,98561.67
2019-02-10T20:57:31.426Z,98561.97
2019-02-10T21:00:02.522Z,98567.42
2019-02-10T21:02:32.813Z,98580.42
2019-02-10T21:05:03.835Z,98568.44
2019-02-10T21:07:34.953Z,98577.94
2019-02-10T21:10:05.155Z,98585.62
2019-02-10T21:12:36.177Z,98590.94
2019-02-10T21:15:09.752Z,98596.80
2019-02-10T21:17:38.531Z,98606.81
2019-02-10T21:20:11.518Z,98618.28
2019-02-10T21:22:40.544Z,98620.02
2019-02-10T21:25:12.352Z,98628.34
2019-02-10T21:27:42.042Z,98626.48
2019-02-10T21:30:14.679Z,98642.56
2019-02-10T21:32:45.857Z,98644.11
2019-02-10T21:35:16.815Z,98647.19
2019-02-10T21:37:47.179Z,98661.83
2019-02-10T21:40:17.076Z,98658.13
2019-02-10T21:42:48.461Z,98666.55
2019-02-10T21:45:19.248Z,98668.09
2019-02-10T21:47:49.930Z,98670.23
2019-02-10T21:50:18.234Z,98673.91
2019-02-10T21:52:46.602Z,98675.95
2019-02-10T21:55:16.637Z,98687.94
2019-02-10T21:57:45.074Z,98686.08
2019-02-10T22:00:14.739Z,98689.97
2019-02-10T22:02:43.066Z,98702.15
2019-02-10T22:05:12.304Z,98685.25
2019-02-10T22:07:40.632Z,98689.45
2019-02-10T22:10:11.488Z,98693.24
2019-02-10T22:12:39.818Z,98693.24
2019-02-10T22:15:10.130Z,98705.83
2019-02-10T22:17:38.453Z,98713.44
2019-02-10T22:20:11.453Z,98719.89
2019-02-10T22:22:40.383Z,98720.78
2019-02-10T22:25:11.220Z,98729.00
2019-02-10T22:27:39.572Z,98737.27
2019-02-10T22:30:13.238Z,98745.05
2019-02-10T22:32:41.627Z,98744.88
2019-02-10T22:35:10.304Z,98766.14
2019-02-10T22:37:38.605Z,98756.52
2019-02-10T22:40:10.456Z,98779.42
2019-02-10T22:42:45.360Z,98776.08
2019-02-10T22:45:11.578Z,98791.03
2019-02-10T22:47:40.033Z,98798.74
2019-02-10T22:50:12.797Z,98798.13
2019-02-10T22:52:41.240Z,98804.78
2019-02-10T22:55:09.804Z,98798.95
2019-02-10T22:57:38.262Z,98801.67
2019-02-10T23:00:15.225Z,98810.48
2019-02-10T23:02:43.591Z,98816.97
2019-02-10T23:05:12.594Z,98820.05
2019-02-10T23:07:40.881Z,98824.96
2019-02-10T23:10:09.594Z,98826.39
2019-02-10T23:12:37.901Z,98822.77
2019-02-10T23:15:06.350Z,98844.27
2019-02-10T23:17:34.654Z,98850.83
2019-02-10T23:20:03.167Z,98862.30
2019-02-10T23:22:31.535Z,98872.13
2019-02-10T23:24:59.881Z,98878.05
2019-02-10T23:27:28.208Z,98884.26
2019-02-10T23:29:56.567Z,98888.55
2019-02-10T23:32:24.873Z,98891.47
2019-02-10T23:34:53.288Z,98903.96
2019-02-10T23:37:21.570Z,98911.90
2019-02-10T23:39:49.906Z,98919.17
2019-02-10T23:42:18.237Z,98930.48
2019-02-10T23:44:46.569Z,98940.00
2019-02-10T23:47:15.323Z,98940.67
2019-02-10T23:49:43.662Z,98950.87
2019-02-10T23:52:12.173Z,98962.13
2019-02-10T23:54:41.952Z,98968.03
2019-02-10T23:57:10.771Z,98968.25
2019-02-10T23:59:41.922Z,98983.19
